createdAt,value
2019-05-12T00:01:48.229Z,22.50
2019-05-12T00:04:18.899Z,22.50
2019-05-12T00:06:48.098Z,22.50
2019-05-12T00:09:18.807Z,22.50
2019-05-12T00:11:48.416Z,22.50
2019-05-12T00:14:18.058Z,22.50
2019-05-12T00:16:49.086Z,22.50
2019-05-12T00:19:18.002Z,22.50
2019-05-12T00:21:48.303Z,22.50
2019-05-12T00:24:18.645Z,22.50
2019-05-12T00:26:49.371Z,22.60
2019-05-12T00:29:18.631Z,22.50
2019-05-12T00:31:47.891Z,22.50
2019-05-12T00:34:18.430Z,22.50
2019-05-12T00:36:48.555Z,22.50
2019-05-12T00:39:19.049Z,22.50
2019-05-12T00:41:48.419Z,22.50
2019-05-12T00:44:18.357Z,22.50
2019-05-12T00:46:48.773Z,22.50
2019-05-12T00:49:18.627Z,22.50
2019-05-12T00:51:48.552Z,22.50
2019-05-12T00:54:17.917Z,22.50
2019-05-12T00:56:48.148Z,22.50
2019-05-12T00:59:19.017Z,22.50
2019-05-12T01:01:48.289Z,22.50
2019-05-12T01:04:17.689Z,22.50
2019-05-12T01:06:49.050Z,22.60
2019-05-12T01:09:17.788Z,22.50
2019-05-12T01:11:48.131Z,22.50
2019-05-12T01:14:18.669Z,22.50
2019-05-12T01:16:48.596Z,22.50
2019-05-12T01:19:18.532Z,22.50
2019-05-12T01:21:48.117Z,22.50
2019-05-12T01:24:18.777Z,22.50
2019-05-12T01:26:48.010Z,22.50
2019-05-12T01:29:17.699Z,22.50
2019-05-12T01:31:59.526Z,22.50
2019-05-12T01:34:28.554Z,22.50
2019-05-12T01:37:18.392Z,22.50
2019-05-12T01:39:49.114Z,22.50
2019-05-12T01:42:18.194Z,22.50
2019-05-12T01:44:48.197Z,22.50
2019-05-12T01:47:18.796Z,22.50
2019-05-12T01:49:48.793Z,22.50
2019-05-12T01:52:17.983Z,22.50
2019-05-12T01:54:48.324Z,22.50
2019-05-12T01:57:18.840Z,22.50
2019-05-12T01:59:48.444Z,22.50
2019-05-12T02:02:17.996Z,22.50
2019-05-12T02:05:08.531Z,22.50
2019-05-12T02:07:42.778Z,22.50
2019-05-12T02:10:12.633Z,22.50
2019-05-12T02:12:41.705Z,22.50
2019-05-12T02:15:11.925Z,22.50
2019-05-12T02:17:40.961Z,22.50
2019-05-12T02:20:11.707Z,22.50
2019-05-12T02:22:40.779Z,22.50
2019-05-12T02:25:10.229Z,22.50
2019-05-12T02:27:39.298Z,22.50
2019-05-12T02:30:10.214Z,22.50
2019-05-12T02:32:48.304Z,22.40
2019-05-12T02:35:10.470Z,22.50
2019-05-12T02:37:39.519Z,22.50
2019-05-12T02:40:09.237Z,22.50
2019-05-12T02:42:38.297Z,22.50
2019-05-12T02:45:07.758Z,22.50
2019-05-12T02:47:36.801Z,22.40
2019-05-12T02:50:06.455Z,22.40
2019-05-12T02:52:35.523Z,22.50
2019-05-12T02:55:06.436Z,22.40
2019-05-12T02:57:36.151Z,22.40
2019-05-12T03:00:07.633Z,22.50
2019-05-12T03:02:37.206Z,22.50
2019-05-12T03:05:07.762Z,22.40
2019-05-12T03:07:36.871Z,22.40
2019-05-12T03:10:08.780Z,22.40
2019-05-12T03:12:37.844Z,22.40
2019-05-12T03:15:07.540Z,22.50
2019-05-12T03:17:36.729Z,22.40
2019-05-12T03:20:06.140Z,22.40
2019-05-12T03:22:35.541Z,22.50
2019-05-12T03:25:15.455Z,22.40
2019-05-12T03:27:35.815Z,22.40
2019-05-12T03:30:11.324Z,22.40
2019-05-12T03:32:38.418Z,22.40
2019-05-12T03:35:09.078Z,22.40
2019-05-12T03:37:38.519Z,22.40
2019-05-12T03:40:08.136Z,22.40
2019-05-12T03:42:37.181Z,22.40
2019-05-12T03:45:06.350Z,22.40
2019-05-12T03:47:35.866Z,22.40
2019-05-12T03:50:05.314Z,22.40
2019-05-12T03:52:35.091Z,22.40
2019-05-12T03:55:05.573Z,22.40
2019-05-12T03:57:35.032Z,22.40
2019-05-12T04:00:05.414Z,22.40
2019-05-12T04:02:34.694Z,22.40
2019-05-12T04:05:05.211Z,22.40
2019-05-12T04:07:34.782Z,22.40
2019-05-12T04:10:05.202Z,22.40
2019-05-12T04:12:34.993Z,22.40
2019-05-12T04:15:05.322Z,22.40
2019-05-12T04:17:35.119Z,22.40
2019-05-12T04:20:05.073Z,22.40
2019-05-12T04:22:35.131Z,22.40
2019-05-12T04:25:06.113Z,22.40
2019-05-12T04:27:35.516Z,22.40
2019-05-12T04:30:05.639Z,22.40
2019-05-12T04:32:35.823Z,22.40
2019-05-12T04:35:05.585Z,22.40
2019-05-12T04:37:35.327Z,22.40
2019-05-12T04:40:05.558Z,22.40
2019-05-12T04:42:35.218Z,22.30
2019-05-12T04:45:04.725Z,22.40
2019-05-12T04:47:35.088Z,22.40
2019-05-12T04:50:05.681Z,22.30
2019-05-12T04:52:35.464Z,22.40
2019-05-12T04:55:05.071Z,22.40
2019-05-12T04:57:34.815Z,22.30
2019-05-12T05:00:05.219Z,22.30
2019-05-12T05:02:36.354Z,22.30
2019-05-12T05:05:05.842Z,22.30
2019-05-12T05:07:35.908Z,22.30
2019-05-12T05:10:05.425Z,22.30
2019-05-12T05:12:34.653Z,22.30
2019-05-12T05:15:05.472Z,22.30
2019-05-12T05:17:34.970Z,22.30
2019-05-12T05:20:04.230Z,22.30
2019-05-12T05:22:33.480Z,22.30
2019-05-12T05:25:04.293Z,22.30
2019-05-12T05:27:34.122Z,22.30
2019-05-12T05:30:04.160Z,22.30
2019-05-12T05:32:34.019Z,22.30
2019-05-12T05:35:04.610Z,22.30
2019-05-12T05:37:36.901Z,22.30
2019-05-12T05:40:05.237Z,22.30
2019-05-12T05:42:35.646Z,22.30
2019-05-12T05:45:05.054Z,22.30
2019-05-12T05:47:34.199Z,22.30
2019-05-12T05:50:04.740Z,22.30
2019-05-12T05:52:38.553Z,22.30
2019-05-12T05:55:14.088Z,22.30
2019-05-12T05:57:35.786Z,22.30
2019-05-12T06:00:15.968Z,22.30
2019-05-12T06:02:40.411Z,22.30
2019-05-12T06:05:07.951Z,22.30
2019-05-12T06:07:39.176Z,22.30
2019-05-12T06:10:08.221Z,22.30
2019-05-12T06:12:40.378Z,22.30
2019-05-12T06:15:09.034Z,22.30
2019-05-12T06:17:38.313Z,22.20
2019-05-12T06:20:07.996Z,22.20
2019-05-12T06:22:37.057Z,22.30
2019-05-12T06:25:06.255Z,22.20
2019-05-12T06:27:36.018Z,22.30
2019-05-12T06:30:06.595Z,22.30
2019-05-12T06:32:35.765Z,22.20
2019-05-12T06:35:05.630Z,22.20
2019-05-12T06:37:34.678Z,22.20
2019-05-12T06:40:04.299Z,22.20
2019-05-12T06:42:34.150Z,22.30
2019-05-12T06:45:03.940Z,22.20
2019-05-12T06:47:34.330Z,22.20
2019-05-12T06:50:04.064Z,22.20
2019-05-12T06:52:33.786Z,22.20
2019-05-12T06:55:04.043Z,22.20
2019-05-12T06:57:34.242Z,22.20
2019-05-12T07:00:04.703Z,22.20
2019-05-12T07:02:37.055Z,22.20
2019-05-12T07:05:04.673Z,22.20
2019-05-12T07:07:42.009Z,22.20
2019-05-12T07:10:11.568Z,22.20
2019-05-12T07:12:43.456Z,22.20
2019-05-12T07:15:07.047Z,22.20
2019-05-12T07:17:47.713Z,22.20
2019-05-12T07:20:14.732Z,22.20
2019-05-12T07:22:48.085Z,22.20
2019-05-12T07:25:14.215Z,22.20
2019-05-12T07:27:45.686Z,22.20
2019-05-12T07:30:14.157Z,22.20
2019-05-12T07:32:43.513Z,22.20
2019-05-12T07:35:14.647Z,22.20
2019-05-12T07:37:45.632Z,22.20
2019-05-12T07:40:19.069Z,22.20
2019-05-12T07:42:45.981Z,22.20
2019-05-12T07:45:20.113Z,22.20
2019-05-12T07:47:45.921Z,22.20
2019-05-12T07:50:20.092Z,22.20
2019-05-12T07:52:45.828Z,22.20
2019-05-12T07:55:15.026Z,22.20
2019-05-12T07:57:52.902Z,22.20
2019-05-12T08:00:21.238Z,22.20
2019-05-12T08:02:46.047Z,22.20
2019-05-12T08:05:19.694Z,22.20
2019-05-12T08:07:45.881Z,22.20
2019-05-12T08:10:18.389Z,22.20
2019-05-12T08:12:45.700Z,22.20
2019-05-12T08:15:14.845Z,22.20
2019-05-12T08:17:44.255Z,22.20
2019-05-12T08:20:13.660Z,22.20
2019-05-12T08:22:43.794Z,22.20
2019-05-12T08:25:13.582Z,22.20
2019-05-12T08:27:45.142Z,22.20
2019-05-12T08:30:13.952Z,22.20
2019-05-12T08:32:44.368Z,22.20
2019-05-12T08:35:14.084Z,22.20
2019-05-12T08:37:44.154Z,22.30
2019-05-12T08:40:15.566Z,22.20
2019-05-12T08:42:44.621Z,22.30
2019-05-12T08:45:22.546Z,22.20
2019-05-12T08:47:44.449Z,22.20
2019-05-12T08:50:13.806Z,22.20
2019-05-12T08:52:44.243Z,22.20
2019-05-12T08:55:16.379Z,22.20
2019-05-12T08:57:49.335Z,22.30
2019-05-12T09:00:16.633Z,22.20
2019-05-12T09:02:50.429Z,22.20
2019-05-12T09:05:16.474Z,22.30
2019-05-12T09:07:46.833Z,22.30
2019-05-12T09:10:15.893Z,22.30
2019-05-12T09:12:44.947Z,22.30
2019-05-12T09:15:14.010Z,22.30
2019-05-12T09:17:52.720Z,22.30
2019-05-12T09:20:13.965Z,22.30
2019-05-12T09:22:43.360Z,22.30
2019-05-12T09:25:14.328Z,22.30
2019-05-12T09:27:45.577Z,22.30
2019-05-12T09:30:15.947Z,22.30
2019-05-12T09:32:49.902Z,22.30
2019-05-12T09:35:15.742Z,22.30
2019-05-12T09:37:44.799Z,22.30
2019-05-12T09:40:14.874Z,22.30
2019-05-12T09:42:44.261Z,22.30
2019-05-12T09:45:13.780Z,22.30
2019-05-12T09:47:43.638Z,22.30
2019-05-12T09:50:18.313Z,22.30
2019-05-12T09:53:09.257Z,22.30
2019-05-12T09:55:34.478Z,22.30
2019-05-12T09:58:04.120Z,22.30
2019-05-12T10:00:35.813Z,22.30
2019-05-12T10:03:08.256Z,22.30
2019-05-12T10:05:40.787Z,22.30
2019-05-12T10:08:06.170Z,22.30
2019-05-12T10:10:40.078Z,22.30
2019-05-12T10:13:06.059Z,22.30
2019-05-12T10:15:35.148Z,22.30
2019-05-12T10:18:11.150Z,22.30
2019-05-12T10:20:39.498Z,22.30
2019-05-12T10:23:10.196Z,22.20
2019-05-12T10:25:36.549Z,22.20
2019-05-12T10:28:11.628Z,22.30
2019-05-12T10:30:36.389Z,22.20
2019-05-12T10:33:05.462Z,22.30
2019-05-12T10:35:35.345Z,22.20
2019-05-12T10:38:10.476Z,22.20
2019-05-12T10:40:35.339Z,22.30
2019-05-12T10:43:04.932Z,22.30
2019-05-12T10:45:35.221Z,22.20
2019-05-12T10:48:04.547Z,22.30
2019-05-12T10:50:34.221Z,22.30
2019-05-12T10:53:04.536Z,22.20
2019-05-12T10:55:34.032Z,22.20
2019-05-12T10:58:06.627Z,22.20
2019-05-12T11:00:34.236Z,22.20
2019-05-12T11:03:10.173Z,22.20
2019-05-12T11:05:34.405Z,22.20
2019-05-12T11:08:10.971Z,22.20
2019-05-12T11:10:34.447Z,22.20
2019-05-12T11:13:08.667Z,22.20
2019-05-12T11:15:34.648Z,22.20
2019-05-12T11:18:07.659Z,22.20
2019-05-12T11:20:36.741Z,22.20
2019-05-12T11:23:05.813Z,22.20
2019-05-12T11:25:36.576Z,22.20
2019-05-12T11:28:07.964Z,22.20
2019-05-12T11:30:37.686Z,22.20
2019-05-12T11:33:07.381Z,22.20
2019-05-12T11:35:37.229Z,22.20
2019-05-12T11:38:07.346Z,22.20
2019-05-12T11:40:37.077Z,22.20
2019-05-12T11:43:06.769Z,22.20
2019-05-12T11:45:36.840Z,22.20
2019-05-12T11:48:09.996Z,22.20
2019-05-12T11:50:40.399Z,22.30
2019-05-12T11:53:07.550Z,22.20
2019-05-12T11:55:36.614Z,22.20
2019-05-12T11:58:09.805Z,22.20
2019-05-12T12:00:38.656Z,22.20
2019-05-12T12:03:18.147Z,22.20
2019-05-12T12:05:39.811Z,22.20
2019-05-12T12:08:09.096Z,22.20
2019-05-12T12:10:39.922Z,22.20
2019-05-12T12:13:09.089Z,22.20
2019-05-12T12:15:38.153Z,22.20
2019-05-12T12:18:13.219Z,22.30
2019-05-12T12:20:38.006Z,22.30
2019-05-12T12:23:11.159Z,22.30
2019-05-12T12:25:37.933Z,22.30
2019-05-12T12:28:07.053Z,22.30
2019-05-12T12:30:36.149Z,22.30
2019-05-12T12:33:05.219Z,22.30
2019-05-12T12:35:34.812Z,22.30
2019-05-12T12:38:04.194Z,22.30
2019-05-12T12:40:33.423Z,22.30
2019-05-12T12:43:03.786Z,22.30
2019-05-12T12:45:51.131Z,22.30
2019-05-12T12:48:27.701Z,22.30
2019-05-12T12:50:53.312Z,22.30
2019-05-12T12:53:23.774Z,22.30
2019-05-12T12:55:53.809Z,22.30
2019-05-12T12:58:26.905Z,22.30
2019-05-12T13:00:56.943Z,22.40
2019-05-12T13:03:29.844Z,22.40
2019-05-12T13:05:58.728Z,22.40
2019-05-12T13:08:27.883Z,22.40
2019-05-12T13:10:57.533Z,22.40
2019-05-12T13:13:29.822Z,22.40
2019-05-12T13:15:59.489Z,22.50
2019-05-12T13:18:33.032Z,22.40
2019-05-12T13:21:00.542Z,22.40
2019-05-12T13:23:37.840Z,22.40
2019-05-12T13:26:00.423Z,22.40
2019-05-12T13:28:29.498Z,22.40
2019-05-12T13:31:07.938Z,22.50
2019-05-12T13:33:29.365Z,22.50
2019-05-12T13:35:58.472Z,22.50
2019-05-12T13:38:30.461Z,22.60
2019-05-12T13:40:58.406Z,22.50
2019-05-12T13:43:27.491Z,22.60
2019-05-12T13:45:56.577Z,22.50
2019-05-12T13:48:25.641Z,22.50
2019-05-12T13:51:07.404Z,22.50
2019-05-12T13:53:25.546Z,22.50
2019-05-12T13:55:54.640Z,22.60
2019-05-12T13:58:28.193Z,22.60
2019-05-12T14:01:10.567Z,22.60
2019-05-12T14:03:27.956Z,22.50
2019-05-12T14:05:56.072Z,22.50
2019-05-12T14:08:25.146Z,22.50
2019-05-12T14:10:59.554Z,22.50
2019-05-12T14:13:24.989Z,22.50
2019-05-12T14:15:54.074Z,22.50
2019-05-12T14:18:23.121Z,22.50
2019-05-12T14:20:58.923Z,22.50
2019-05-12T14:23:23.971Z,22.50
2019-05-12T14:25:54.240Z,22.60
2019-05-12T14:28:23.604Z,22.60
2019-05-12T14:30:54.495Z,22.60
2019-05-12T14:33:24.665Z,22.70
2019-05-12T14:35:54.143Z,22.70
2019-05-12T14:38:27.569Z,22.70
2019-05-12T14:40:54.026Z,22.70
2019-05-12T14:43:24.036Z,22.80
2019-05-12T14:45:54.174Z,22.80
2019-05-12T14:48:23.444Z,22.80
2019-05-12T14:50:53.552Z,22.80
2019-05-12T14:53:23.700Z,22.80
2019-05-12T14:55:53.548Z,22.80
2019-05-12T14:58:23.672Z,22.80
2019-05-12T15:00:56.384Z,22.80
2019-05-12T15:03:24.314Z,22.80
2019-05-12T15:05:54.502Z,22.80
2019-05-12T15:08:35.608Z,22.80
2019-05-12T15:10:54.673Z,22.80
2019-05-12T15:13:24.111Z,22.90
2019-05-12T15:15:58.042Z,22.80
2019-05-12T15:18:24.044Z,22.80
2019-05-12T15:20:54.442Z,22.90
2019-05-12T15:23:32.183Z,22.90
2019-05-12T15:25:54.500Z,22.90
2019-05-12T15:28:23.769Z,22.90
2019-05-12T15:30:54.129Z,22.90
2019-05-12T15:33:24.330Z,23.00
2019-05-12T15:35:54.750Z,23.00
2019-05-12T15:38:24.186Z,23.00
2019-05-12T15:40:53.830Z,23.00
2019-05-12T15:43:24.409Z,23.00
2019-05-12T15:45:55.222Z,23.00
2019-05-12T15:48:26.034Z,23.00
2019-05-12T15:50:59.569Z,23.00
2019-05-12T15:53:27.142Z,23.00
2019-05-12T15:55:56.395Z,23.00
2019-05-12T15:58:25.474Z,23.10
2019-05-12T16:00:57.646Z,23.00
2019-05-12T16:03:26.383Z,23.10
2019-05-12T16:05:55.981Z,23.10
2019-05-12T16:08:25.151Z,23.10
2019-05-12T16:10:56.214Z,23.10
2019-05-12T16:13:24.956Z,23.10
2019-05-12T16:15:56.025Z,23.10
2019-05-12T16:18:26.744Z,23.00
2019-05-12T16:20:58.982Z,23.00
2019-05-12T16:23:30.163Z,23.00
2019-05-12T16:26:01.358Z,23.00
2019-05-12T16:28:27.957Z,23.10
2019-05-12T16:30:58.922Z,23.10
2019-05-12T16:33:27.822Z,23.10
2019-05-12T16:35:59.905Z,23.10
2019-05-12T16:38:27.739Z,23.10
2019-05-12T16:40:56.804Z,23.00
2019-05-12T16:43:29.404Z,23.00
2019-05-12T16:45:56.650Z,23.00
2019-05-12T16:48:32.860Z,23.00
2019-05-12T16:50:56.461Z,23.00
2019-05-12T16:53:27.918Z,23.00
2019-05-12T16:55:56.319Z,23.00
2019-05-12T16:58:32.742Z,23.00
2019-05-12T17:00:56.193Z,23.00
2019-05-12T17:03:25.262Z,23.00
2019-05-12T17:05:55.873Z,23.00
2019-05-12T17:08:25.107Z,23.00
2019-05-12T17:11:01.194Z,23.00
2019-05-12T17:13:24.949Z,23.00
2019-05-12T17:15:58.014Z,23.00
2019-05-12T17:18:24.970Z,23.00
2019-05-12T17:20:54.708Z,22.90
2019-05-12T17:23:24.566Z,22.90
2019-05-12T17:25:53.937Z,22.90
2019-05-12T17:28:23.825Z,22.90
2019-05-12T17:30:54.467Z,22.90
2019-05-12T17:33:27.357Z,22.90
2019-05-12T17:35:54.603Z,22.80
2019-05-12T17:38:26.014Z,22.80
2019-05-12T17:40:58.910Z,22.80
2019-05-12T17:43:26.133Z,22.80
2019-05-12T17:45:59.620Z,22.80
2019-05-12T17:48:25.977Z,22.80
2019-05-12T17:50:55.065Z,22.70
2019-05-12T17:53:24.294Z,22.70
2019-05-12T17:55:56.146Z,22.70
2019-05-12T17:58:24.456Z,22.70
2019-05-12T18:00:55.201Z,22.70
2019-05-12T18:03:25.692Z,22.70
2019-05-12T18:05:55.020Z,22.70
2019-05-12T18:08:32.292Z,22.60
2019-05-12T18:10:54.865Z,22.70
2019-05-12T18:13:27.543Z,22.60
2019-05-12T18:15:54.735Z,22.70
2019-05-12T18:18:32.402Z,22.60
2019-05-12T18:20:55.730Z,22.60
2019-05-12T18:23:26.179Z,22.60
2019-05-12T18:25:55.742Z,22.60
2019-05-12T18:28:27.977Z,22.60
2019-05-12T18:30:55.667Z,22.60
2019-05-12T18:33:33.283Z,22.60
2019-05-12T18:35:55.493Z,22.50
2019-05-12T18:38:26.741Z,22.60
2019-05-12T18:40:55.295Z,22.50
2019-05-12T18:43:24.454Z,22.50
2019-05-12T18:45:56.682Z,22.50
2019-05-12T18:48:25.183Z,22.50
2019-05-12T18:50:54.495Z,22.50
2019-05-12T18:53:27.945Z,22.50
2019-05-12T18:55:54.341Z,22.50
2019-05-12T18:58:30.511Z,22.50
2019-05-12T19:00:54.456Z,22.50
2019-05-12T19:03:25.381Z,22.50
2019-05-12T19:05:57.791Z,22.50
2019-05-12T19:08:25.143Z,22.50
2019-05-12T19:10:54.256Z,22.50
2019-05-12T19:13:23.424Z,22.50
2019-05-12T19:15:58.678Z,22.50
2019-05-12T19:18:24.515Z,22.50
2019-05-12T19:20:54.315Z,22.50
2019-05-12T19:23:26.905Z,22.40
2019-05-12T19:25:54.296Z,22.40
2019-05-12T19:28:23.835Z,22.40
2019-05-12T19:30:54.697Z,22.40
2019-05-12T19:33:23.962Z,22.50
2019-05-12T19:35:59.911Z,22.40
2019-05-12T19:38:24.072Z,22.40
2019-05-12T19:40:56.329Z,22.40
2019-05-12T19:43:24.416Z,22.40
2019-05-12T19:46:02.771Z,22.40
2019-05-12T19:48:27.488Z,22.40
2019-05-12T19:50:56.990Z,22.40
2019-05-12T19:53:25.863Z,22.40
2019-05-12T19:55:54.934Z,22.40
2019-05-12T19:58:23.999Z,22.40
2019-05-12T20:00:54.306Z,22.40
2019-05-12T20:03:24.206Z,22.40
2019-05-12T20:05:53.930Z,22.40
2019-05-12T20:08:23.141Z,22.40
2019-05-12T20:10:54.128Z,22.40
2019-05-12T20:13:24.076Z,22.40
2019-05-12T20:15:53.334Z,22.40
2019-05-12T20:18:23.666Z,22.40
2019-05-12T20:20:54.369Z,22.40
2019-05-12T20:23:24.606Z,22.40
2019-05-12T20:25:53.828Z,22.40
2019-05-12T20:28:24.269Z,22.40
2019-05-12T20:31:00.969Z,22.40
2019-05-12T20:33:24.361Z,22.40
2019-05-12T20:35:54.688Z,22.40
2019-05-12T20:38:27.115Z,22.40
2019-05-12T20:40:54.847Z,22.40
2019-05-12T20:43:32.056Z,22.40
2019-05-12T20:45:55.042Z,22.40
2019-05-12T20:48:29.214Z,22.40
2019-05-12T20:50:55.845Z,22.50
2019-05-12T20:53:32.021Z,22.50
2019-05-12T20:55:57.045Z,22.50
2019-05-12T20:58:34.141Z,22.40
2019-05-12T21:01:01.802Z,22.40
2019-05-12T21:03:30.238Z,22.40
2019-05-12T21:06:01.649Z,22.40
2019-05-12T21:08:31.072Z,22.50
2019-05-12T21:11:01.012Z,22.50
2019-05-12T21:13:31.897Z,22.40
2019-05-12T21:16:15.697Z,22.40
2019-05-12T21:18:47.041Z,22.50
2019-05-12T21:21:05.009Z,22.50
2019-05-12T21:23:33.981Z,22.50
2019-05-12T21:26:04.218Z,22.50
2019-05-12T21:28:37.120Z,22.50
2019-05-12T21:31:05.761Z,22.50
2019-05-12T21:33:40.017Z,22.50
2019-05-12T21:36:05.636Z,22.50
2019-05-12T21:38:34.710Z,22.50
2019-05-12T21:41:07.913Z,22.50
2019-05-12T21:43:34.545Z,22.50
2019-05-12T21:46:07.786Z,22.50
2019-05-12T21:48:34.386Z,22.50
2019-05-12T21:51:04.171Z,22.50
2019-05-12T21:53:34.509Z,22.50
2019-05-12T21:56:05.522Z,22.50
2019-05-12T21:58:34.646Z,22.60
2019-05-12T22:01:07.765Z,22.50
2019-05-12T22:03:36.341Z,22.50
2019-05-12T22:06:15.238Z,22.60
2019-05-12T22:08:36.273Z,22.60
2019-05-12T22:11:11.273Z,22.60
2019-05-12T22:13:37.013Z,22.50
2019-05-12T22:16:06.062Z,22.50
2019-05-12T22:18:35.011Z,22.50
2019-05-12T22:21:06.769Z,22.60
2019-05-12T22:23:34.838Z,22.50
2019-05-12T22:26:04.314Z,22.60
2019-05-12T22:28:34.246Z,22.50
2019-05-12T22:31:03.657Z,22.50
2019-05-12T22:33:33.387Z,22.50
2019-05-12T22:36:08.312Z,22.50
2019-05-12T22:38:34.120Z,22.50
2019-05-12T22:41:04.287Z,22.50
2019-05-12T22:43:40.721Z,22.60
2019-05-12T22:46:04.628Z,22.50
2019-05-12T22:48:37.285Z,22.60
2019-05-12T22:51:06.118Z,22.60
2019-05-12T22:53:35.565Z,22.50
2019-05-12T22:56:12.102Z,22.50
2019-05-12T22:58:35.430Z,22.50
2019-05-12T23:01:05.395Z,22.50
2019-05-12T23:03:34.792Z,22.50
2019-05-12T23:06:13.097Z,22.50
2019-05-12T23:08:38.920Z,22.60
2019-05-12T23:11:05.414Z,22.50
2019-05-12T23:13:38.467Z,22.50
2019-05-12T23:16:06.053Z,22.60
2019-05-12T23:18:35.128Z,22.50
2019-05-12T23:21:12.529Z,22.50
2019-05-12T23:23:34.958Z,22.50
2019-05-12T23:26:04.026Z,22.50
2019-05-12T23:28:33.742Z,22.50
2019-05-12T23:31:04.300Z,22.50
2019-05-12T23:33:36.696Z,22.50
2019-05-12T23:36:09.619Z,22.50
2019-05-12T23:38:35.501Z,22.50
2019-05-12T23:41:04.570Z,22.50
2019-05-12T23:43:34.126Z,22.50
2019-05-12T23:46:03.380Z,22.50
2019-05-12T23:48:33.530Z,22.50
2019-05-12T23:51:03.780Z,22.50
2019-05-12T23:53:33.962Z,22.50
2019-05-12T23:56:03.702Z,22.50
2019-05-12T23:58:33.082Z,22.50
